Time;durP1;ratioP1;P1;durP2;ratioP2;P2;SDS_P1;SDS_P2;PMS_P1;PMS_P2;Temp;Humidity;BMP_temperature;BMP_pressure;BME280_temperature;BME280_humidity;BME280_pressure;Samples;Min_cycle;Max_cycle;Signal;HPM_P1;HPM_P2
2021/12/04 00:00:01;;;;;;;15.40;8.83;;;1.30;99.90;;;;;;5154026;28;20940;-52
2021/12/04 00:02:32;;;;;;;14.07;8.90;;;1.40;99.90;;;;;;5139382;28;20469;-51
2021/12/04 00:05:05;;;;;;;16.27;8.77;;;1.40;99.90;;;;;;5138235;28;20453;-52
2021/12/04 00:07:37;;;;;;;9.67;7.97;;;1.30;99.90;;;;;;5140440;28;20445;-50
2021/12/04 00:10:08;;;;;;;17.47;8.90;;;1.40;99.90;;;;;;5142475;28;20429;-52
2021/12/04 00:12:39;;;;;;;18.53;9.23;;;1.40;99.90;;;;;;5137058;28;20433;-50
2021/12/04 00:15:09;;;;;;;18.93;9.93;;;1.40;99.90;;;;;;5136530;28;21074;-51
2021/12/04 00:17:40;;;;;;;18.00;11.40;;;1.40;99.90;;;;;;5141472;28;20302;-52
2021/12/04 00:20:11;;;;;;;15.77;10.10;;;1.50;99.90;;;;;;5136975;28;20189;-52
2021/12/04 00:22:42;;;;;;;29.80;12.90;;;1.40;99.90;;;;;;5139120;28;20210;-50
2021/12/04 00:25:12;;;;;;;16.10;9.67;;;1.40;99.90;;;;;;5154734;28;20465;-53
2021/12/04 00:27:44;;;;;;;17.70;8.60;;;1.50;99.90;;;;;;5138811;28;20244;-52
2021/12/04 00:30:15;;;;;;;21.10;9.37;;;1.50;99.90;;;;;;5138021;28;20634;-52
2021/12/04 00:32:55;;;;;;;13.57;9.97;;;1.50;99.90;;;;;;5137781;28;20436;-51
2021/12/04 00:49:21;;;;;;;16.00;9.03;;;1.50;99.90;;;;;;5138370;28;20449;-49
2021/12/04 00:51:54;;;;;;;12.40;8.90;;;1.50;99.90;;;;;;5154704;28;20469;-54
2021/12/04 00:54:27;;;;;;;14.53;10.17;;;1.60;99.90;;;;;;5139916;28;20289;-51
2021/12/04 00:56:57;;;;;;;11.17;9.00;;;1.60;99.90;;;;;;5144199;28;20429;-49
2021/12/04 00:59:28;;;;;;;16.43;8.60;;;1.60;99.90;;;;;;5142007;28;20447;-50
2021/12/04 01:01:58;;;;;;;10.50;8.93;;;1.60;99.90;;;;;;5139828;28;20201;-51
2021/12/04 01:04:29;;;;;;;15.10;9.30;;;1.60;99.90;;;;;;5133999;28;20287;-51
2021/12/04 01:06:59;;;;;;;15.07;9.40;;;1.60;99.90;;;;;;5139319;28;20256;-49
2021/12/04 01:09:30;;;;;;;11.03;8.37;;;1.60;99.90;;;;;;5144639;28;20194;-50
2021/12/04 01:12:01;;;;;;;10.80;7.37;;;1.60;99.90;;;;;;5143664;28;20189;-51
2021/12/04 01:14:32;;;;;;;14.43;8.57;;;1.60;99.90;;;;;;5137410;28;20287;-50
2021/12/04 01:17:03;;;;;;;11.40;7.53;;;1.60;99.90;;;;;;5137545;28;20182;-49
2021/12/04 01:19:34;;;;;;;13.40;8.87;;;1.60;99.90;;;;;;5141370;28;20433;-51
2021/12/04 01:22:06;;;;;;;10.57;7.63;;;1.70;99.90;;;;;;5140485;28;20236;-51
2021/12/04 01:24:36;;;;;;;15.23;8.90;;;1.70;99.90;;;;;;5141082;28;20222;-52
2021/12/04 01:27:08;;;;;;;14.63;8.30;;;1.70;99.90;;;;;;5144694;28;20472;-50
2021/12/04 01:29:38;;;;;;;9.93;8.73;;;1.70;99.90;;;;;;5142882;28;20181;-49
2021/12/04 01:32:10;;;;;;;18.40;9.23;;;1.70;99.90;;;;;;5143550;28;20443;-51
2021/12/04 01:34:40;;;;;;;13.10;9.00;;;1.70;99.90;;;;;;5141747;28;21727;-50
2021/12/04 01:37:11;;;;;;;14.77;9.00;;;1.70;99.90;;;;;;5142840;28;20528;-49
2021/12/04 01:39:42;;;;;;;12.60;9.07;;;1.80;99.90;;;;;;5143361;28;20189;-50
2021/12/04 01:42:12;;;;;;;17.40;9.10;;;1.70;99.90;;;;;;5142438;28;20324;-50
2021/12/04 01:44:43;;;;;;;11.33;9.53;;;1.80;99.90;;;;;;5141258;28;20217;-51
2021/12/04 01:47:20;;;;;;;11.63;9.10;;;1.70;99.90;;;;;;5142424;28;20190;-49
2021/12/04 01:49:53;;;;;;;16.27;9.00;;;1.80;99.90;;;;;;5142819;28;20649;-49
2021/12/04 01:52:23;;;;;;;24.93;9.50;;;1.80;99.90;;;;;;5140055;28;20448;-51
2021/12/04 01:54:54;;;;;;;11.90;9.60;;;1.80;99.90;;;;;;5144236;28;20483;-49
2021/12/04 01:57:25;;;;;;;12.33;9.43;;;1.80;99.90;;;;;;5141888;28;20626;-49
2021/12/04 01:59:56;;;;;;;13.10;8.60;;;1.80;99.90;;;;;;5140251;28;20186;-51
2021/12/04 02:02:26;;;;;;;15.53;10.10;;;1.80;99.90;;;;;;5141821;28;20463;-49
2021/12/04 02:04:57;;;;;;;10.63;9.03;;;1.80;99.90;;;;;;5134467;28;20236;-50
2021/12/04 02:07:30;;;;;;;17.30;10.37;;;1.80;99.90;;;;;;5139930;28;20516;-50
2021/12/04 02:10:04;;;;;;;14.43;10.20;;;1.80;99.90;;;;;;5141294;28;20170;-49
2021/12/04 02:12:34;;;;;;;11.93;9.20;;;1.80;99.90;;;;;;5144786;28;20445;-49
2021/12/04 02:15:06;;;;;;;14.03;9.43;;;1.80;99.90;;;;;;5140123;28;21012;-52
2021/12/04 02:17:37;;;;;;;15.20;9.70;;;1.80;99.90;;;;;;5122401;28;20174;-50
2021/12/04 02:20:10;;;;;;;15.20;9.13;;;1.80;99.90;;;;;;5138598;28;20949;-51
2021/12/04 02:22:41;;;;;;;12.20;8.43;;;1.80;99.90;;;;;;5124446;28;20239;-49
2021/12/04 02:25:12;;;;;;;13.80;10.37;;;1.80;99.90;;;;;;5142599;28;20461;-52
2021/12/04 02:27:44;;;;;;;15.90;10.40;;;1.80;99.90;;;;;;5141761;28;20241;-49
2021/12/04 02:30:24;;;;;;;18.13;10.87;;;1.80;99.90;;;;;;5140310;28;20477;-51
2021/12/04 02:32:56;;;;;;;11.77;8.90;;;1.80;99.90;;;;;;5141870;28;20455;-50
2021/12/04 02:35:27;;;;;;;9.30;8.40;;;1.90;99.90;;;;;;5138687;28;20500;-49
2021/12/04 02:37:58;;;;;;;15.40;9.50;;;1.80;99.90;;;;;;5141651;28;20449;-51
2021/12/04 02:40:28;;;;;;;13.50;9.70;;;1.80;99.90;;;;;;5142101;28;20240;-49
2021/12/04 02:42:59;;;;;;;15.97;10.20;;;1.80;99.90;;;;;;5140268;28;20300;-50
2021/12/04 02:45:29;;;;;;;11.67;8.60;;;1.80;99.90;;;;;;5142769;28;20232;-49
2021/12/04 02:48:00;;;;;;;13.03;9.73;;;1.80;99.90;;;;;;5142444;28;20522;-50
2021/12/04 02:50:31;;;;;;;13.50;9.70;;;1.80;99.90;;;;;;5138005;28;20197;-51
2021/12/04 02:53:01;;;;;;;14.00;10.03;;;1.80;99.90;;;;;;5140429;28;20186;-50
2021/12/04 02:55:32;;;;;;;22.30;11.50;;;1.80;99.90;;;;;;5144385;28;20189;-49
2021/12/04 02:58:03;;;;;;;19.77;10.23;;;1.80;99.90;;;;;;5144614;28;20638;-50
2021/12/04 03:00:34;;;;;;;22.93;11.53;;;1.80;99.90;;;;;;5142652;28;20189;-50
2021/12/04 03:03:04;;;;;;;14.73;10.60;;;1.80;99.90;;;;;;5124080;28;20198;-49
2021/12/04 03:05:35;;;;;;;11.90;9.10;;;1.80;99.90;;;;;;5140896;28;20212;-49
2021/12/04 03:08:07;;;;;;;10.83;8.57;;;1.80;99.90;;;;;;5140270;28;20260;-50
2021/12/04 03:10:37;;;;;;;18.60;9.20;;;1.70;99.90;;;;;;5139545;28;20233;-49
2021/12/04 03:13:10;;;;;;;16.93;10.57;;;1.70;99.90;;;;;;5140153;28;20839;-51
2021/12/04 03:15:45;;;;;;;11.50;9.93;;;1.80;99.90;;;;;;5140135;28;20182;-50
2021/12/04 03:18:15;;;;;;;11.60;10.13;;;1.70;99.90;;;;;;5140147;28;20429;-50
2021/12/04 03:20:46;;;;;;;12.57;10.00;;;1.80;99.90;;;;;;5138998;28;20471;-50
2021/12/04 03:23:26;;;;;;;15.33;10.90;;;1.70;99.90;;;;;;5145834;28;20205;-49
2021/12/04 03:25:59;;;;;;;12.90;9.90;;;1.70;99.90;;;;;;5141271;28;20440;-52
2021/12/04 03:28:31;;;;;;;21.13;10.47;;;1.80;99.90;;;;;;5138781;28;21100;-49
2021/12/04 03:31:11;;;;;;;16.83;10.30;;;1.80;99.90;;;;;;5141205;28;20429;-49
2021/12/04 03:42:09;;;;;;;13.93;10.30;;;1.80;99.90;;;;;;5142471;28;20547;-49
2021/12/04 03:44:40;;;;;;;15.83;10.43;;;1.80;99.90;;;;;;5139742;28;20539;-50
2021/12/04 03:47:11;;;;;;;15.90;9.90;;;1.80;99.90;;;;;;5138364;28;20444;-50
2021/12/04 03:49:42;;;;;;;13.10;9.67;;;1.80;99.90;;;;;;5134071;28;20181;-50
2021/12/04 03:52:13;;;;;;;17.97;11.33;;;1.80;99.90;;;;;;5140859;28;20201;-49
2021/12/04 03:54:44;;;;;;;13.93;10.77;;;1.80;99.90;;;;;;5140214;28;20634;-50
2021/12/04 03:57:15;;;;;;;22.47;11.80;;;1.80;99.90;;;;;;5142678;28;20468;-49
2021/12/04 03:59:47;;;;;;;12.20;9.90;;;1.80;99.90;;;;;;5139796;28;21087;-50
2021/12/04 04:02:18;;;;;;;12.67;10.30;;;1.90;99.90;;;;;;5151329;28;20216;-48
2021/12/04 04:04:49;;;;;;;13.47;10.97;;;1.90;99.90;;;;;;5138150;28;20456;-50
2021/12/04 04:07:19;;;;;;;15.77;10.03;;;1.90;99.90;;;;;;5139889;28;20173;-50
2021/12/04 04:09:50;;;;;;;14.43;10.03;;;1.90;99.90;;;;;;5138965;28;20257;-50
2021/12/04 04:12:21;;;;;;;13.90;10.90;;;1.90;99.90;;;;;;5137922;28;20537;-49
2021/12/04 04:14:51;;;;;;;13.33;10.30;;;1.90;99.90;;;;;;5139509;28;20579;-51
2021/12/04 04:17:22;;;;;;;15.57;11.73;;;1.90;99.90;;;;;;5138128;28;20265;-49
2021/12/04 04:19:53;;;;;;;16.23;11.00;;;1.90;99.90;;;;;;5135861;28;20188;-50
2021/12/04 04:22:23;;;;;;;13.70;11.20;;;1.90;99.90;;;;;;5139920;28;20205;-50
2021/12/04 04:24:54;;;;;;;15.57;10.13;;;1.90;99.90;;;;;;5136826;28;20201;-50
2021/12/04 04:27:24;;;;;;;15.90;11.10;;;1.90;99.90;;;;;;5137747;28;20231;-49
2021/12/04 04:29:55;;;;;;;18.00;11.50;;;1.90;99.90;;;;;;5135675;28;20255;-50
2021/12/04 04:32:25;;;;;;;17.37;11.63;;;1.90;99.90;;;;;;5135174;28;20181;-49
2021/12/04 04:35:06;;;;;;;25.20;12.90;;;2.00;99.90;;;;;;5137865;28;20220;-50
2021/12/04 04:38:01;;;;;;;16.30;10.77;;;2.10;99.90;;;;;;5139647;28;20197;-50
2021/12/04 04:57:38;;;;;;;16.23;11.57;;;2.00;99.90;;;;;;5129953;28;20539;-49
2021/12/04 05:11:34;;;;;;;14.90;11.90;;;1.90;99.90;;;;;;5136059;28;20419;-52
2021/12/04 05:14:05;;;;;;;18.60;11.60;;;1.90;99.90;;;;;;5141197;28;20457;-53
2021/12/04 05:16:48;;;;;;;17.67;13.30;;;2.00;99.90;;;;;;5140698;28;20842;-50
2021/12/04 05:19:27;;;;;;;18.87;13.10;;;2.00;99.90;;;;;;5136703;28;20942;-49
2021/12/04 05:21:57;;;;;;;19.33;12.80;;;2.00;99.90;;;;;;5137864;28;20464;-50
2021/12/04 05:24:28;;;;;;;21.77;13.77;;;2.00;99.90;;;;;;5140258;28;20453;-50
2021/12/04 05:26:59;;;;;;;22.20;13.80;;;2.00;99.90;;;;;;5140065;28;20186;-49
2021/12/04 05:29:30;;;;;;;33.67;13.80;;;2.00;99.90;;;;;;5136201;28;20638;-51
2021/12/04 05:32:01;;;;;;;20.77;14.50;;;2.00;99.90;;;;;;5136451;28;20260;-49
2021/12/04 05:34:33;;;;;;;18.97;12.90;;;2.00;99.90;;;;;;5137791;28;20213;-50
2021/12/04 05:37:04;;;;;;;16.63;12.10;;;2.10;99.90;;;;;;5139510;28;20433;-48
2021/12/04 05:39:34;;;;;;;20.50;13.70;;;2.00;99.90;;;;;;5141367;28;20786;-49
2021/12/04 05:42:05;;;;;;;15.77;12.50;;;2.00;99.90;;;;;;5140245;28;20225;-51
2021/12/04 05:44:36;;;;;;;17.10;12.40;;;2.00;99.90;;;;;;5138570;28;20204;-49
2021/12/04 05:47:46;;;;;;;13.93;12.10;;;2.00;99.90;;;;;;5143273;28;20252;-49
2021/12/04 05:53:14;;;;;;;17.00;13.30;;;2.10;99.90;;;;;;5133756;28;21022;-48
2021/12/04 05:55:53;;;;;;;20.47;13.90;;;2.00;99.90;;;;;;5138615;28;20441;-49
2021/12/04 05:58:32;;;;;;;15.63;11.93;;;2.10;99.90;;;;;;5140431;28;20969;-49
2021/12/04 06:01:06;;;;;;;24.03;12.50;;;2.20;99.90;;;;;;5156249;28;20441;-49
2021/12/04 06:03:37;;;;;;;15.00;11.70;;;2.20;99.90;;;;;;5142537;28;20499;-49
2021/12/04 06:06:08;;;;;;;20.30;13.17;;;2.40;99.90;;;;;;5142094;28;21681;-50
2021/12/04 06:08:38;;;;;;;18.70;12.37;;;2.20;99.90;;;;;;5140591;28;20198;-50
2021/12/04 06:11:09;;;;;;;17.60;12.33;;;2.20;99.90;;;;;;5144077;28;20192;-50
2021/12/04 06:13:40;;;;;;;20.20;12.40;;;2.10;99.90;;;;;;5122008;28;20292;-50
2021/12/04 06:16:10;;;;;;;22.40;13.10;;;2.00;99.90;;;;;;5142301;28;20244;-50
2021/12/04 06:18:42;;;;;;;16.07;10.77;;;2.00;99.90;;;;;;5145124;28;20213;-49
2021/12/04 06:24:04;;;;;;;12.47;9.70;;;2.00;99.90;;;;;;5143382;28;20460;-49
2021/12/04 06:26:36;;;;;;;15.10;10.97;;;2.00;99.90;;;;;;5144033;28;20484;-48
2021/12/04 06:29:06;;;;;;;15.53;11.20;;;1.90;99.90;;;;;;5141558;28;20426;-49
2021/12/04 06:31:37;;;;;;;11.90;9.90;;;2.10;99.90;;;;;;5142063;28;21093;-51
2021/12/04 06:34:07;;;;;;;12.07;9.67;;;2.10;99.90;;;;;;5141750;28;20233;-50
2021/12/04 06:36:38;;;;;;;10.00;9.00;;;2.10;99.90;;;;;;5136611;28;20194;-50
2021/12/04 06:39:09;;;;;;;14.27;10.37;;;2.00;99.90;;;;;;5145000;28;20198;-50
2021/12/04 06:41:41;;;;;;;14.20;9.17;;;2.10;99.90;;;;;;5143303;28;20213;-51
2021/12/04 06:44:11;;;;;;;26.47;9.70;;;2.00;99.90;;;;;;5143159;28;20465;-49
2021/12/04 06:46:42;;;;;;;11.20;9.40;;;2.00;99.90;;;;;;5142549;28;21292;-50
2021/12/04 06:49:24;;;;;;;12.40;10.83;;;2.10;99.90;;;;;;5122553;28;20182;-49
2021/12/04 06:51:58;;;;;;;14.90;10.47;;;2.00;99.90;;;;;;5140939;28;20181;-49
2021/12/04 06:54:35;;;;;;;12.33;10.10;;;2.00;99.90;;;;;;5140221;28;20457;-51
2021/12/04 06:57:09;;;;;;;12.20;9.03;;;2.00;99.90;;;;;;5139178;28;20511;-48
2021/12/04 06:59:41;;;;;;;9.70;8.80;;;2.20;99.90;;;;;;5139170;28;20476;-50
2021/12/04 07:02:13;;;;;;;13.93;11.50;;;2.00;99.90;;;;;;5140805;28;20522;-50
2021/12/04 07:04:44;;;;;;;15.57;9.20;;;2.10;99.90;;;;;;5140432;28;20461;-52
2021/12/04 07:07:15;;;;;;;18.57;9.90;;;2.00;99.90;;;;;;5138318;28;20569;-49
2021/12/04 07:09:46;;;;;;;15.77;10.27;;;2.00;99.90;;;;;;5138946;28;20208;-52
2021/12/04 07:12:19;;;;;;;20.90;13.57;;;2.00;99.90;;;;;;5140561;28;20472;-51
2021/12/04 07:14:50;;;;;;;17.50;13.53;;;2.20;99.90;;;;;;5141333;28;20720;-51
2021/12/04 07:17:20;;;;;;;16.73;11.33;;;2.20;99.90;;;;;;5140951;28;20476;-53
2021/12/04 07:19:51;;;;;;;15.00;10.37;;;2.20;99.90;;;;;;5138061;28;20225;-50
2021/12/04 07:22:21;;;;;;;18.97;12.03;;;2.10;99.90;;;;;;5137221;28;20316;-52
2021/12/04 07:24:52;;;;;;;14.20;9.23;;;2.10;99.90;;;;;;5142695;28;20205;-50
2021/12/04 07:27:22;;;;;;;10.30;8.60;;;2.10;99.90;;;;;;5135680;28;20240;-50
2021/12/04 07:29:53;;;;;;;11.73;10.17;;;2.10;99.90;;;;;;5138355;28;20207;-50
2021/12/04 07:32:25;;;;;;;9.13;8.07;;;2.20;99.90;;;;;;5134416;28;20205;-53
2021/12/04 07:34:56;;;;;;;15.27;9.67;;;2.10;99.90;;;;;;5136778;28;20220;-53
2021/12/04 07:37:26;;;;;;;20.33;10.67;;;2.30;99.90;;;;;;5127831;28;20456;-49
2021/12/04 07:39:57;;;;;;;12.60;9.10;;;2.20;99.90;;;;;;5137301;28;27844;-52
2021/12/04 07:42:27;;;;;;;9.50;7.37;;;2.20;99.90;;;;;;5133110;28;20205;-52
2021/12/04 07:44:59;;;;;;;9.57;7.83;;;2.10;99.90;;;;;;5142715;28;20580;-50
2021/12/04 07:47:29;;;;;;;10.87;8.63;;;2.20;99.90;;;;;;5139362;28;20178;-51
2021/12/04 07:50:01;;;;;;;9.90;7.80;;;2.20;99.90;;;;;;5138827;28;20512;-51
2021/12/04 07:52:32;;;;;;;12.27;8.80;;;2.30;99.90;;;;;;5133884;28;20192;-51
2021/12/04 07:55:03;;;;;;;13.30;8.80;;;2.30;99.90;;;;;;5134873;28;20465;-50
2021/12/04 07:57:36;;;;;;;9.97;7.87;;;2.30;99.90;;;;;;5132776;28;20181;-50
2021/12/04 08:00:10;;;;;;;8.77;6.97;;;2.30;99.90;;;;;;5131441;28;20648;-51
2021/12/04 08:02:41;;;;;;;9.00;7.17;;;2.40;99.90;;;;;;5132819;28;20463;-50
2021/12/04 08:05:12;;;;;;;11.80;7.20;;;2.30;99.90;;;;;;5127762;28;20445;-52
2021/12/04 08:07:43;;;;;;;7.50;6.50;;;2.40;99.90;;;;;;5129439;28;20434;-51
2021/12/04 08:10:16;;;;;;;7.63;6.90;;;2.40;99.90;;;;;;5124369;28;20182;-51
2021/12/04 08:12:48;;;;;;;11.20;7.20;;;2.50;99.90;;;;;;5133396;28;20268;-49
2021/12/04 08:15:19;;;;;;;9.23;7.33;;;2.50;99.90;;;;;;5138961;28;22110;-50
2021/12/04 08:17:50;;;;;;;9.80;7.53;;;2.40;99.90;;;;;;5136804;28;20575;-50
2021/12/04 08:20:21;;;;;;;13.90;8.10;;;2.50;99.90;;;;;;5134929;28;20197;-53
2021/12/04 08:22:51;;;;;;;10.30;8.63;;;2.60;99.90;;;;;;5134623;28;20288;-49
2021/12/04 08:25:23;;;;;;;12.00;8.43;;;2.60;99.90;;;;;;5134397;28;20456;-51
2021/12/04 08:27:53;;;;;;;10.70;7.70;;;2.70;99.90;;;;;;5133740;28;20248;-50
2021/12/04 08:30:27;;;;;;;15.83;11.57;;;2.70;99.90;;;;;;5135344;28;20441;-49
2021/12/04 08:32:58;;;;;;;14.50;8.50;;;2.60;99.90;;;;;;5129701;28;20237;-51
2021/12/04 08:35:31;;;;;;;15.00;9.73;;;2.70;99.90;;;;;;5179597;23;20598;-50
2021/12/04 08:38:02;;;;;;;19.47;9.87;;;2.80;99.90;;;;;;5175115;28;20637;-52
2021/12/04 08:40:33;;;;;;;10.50;7.30;;;2.70;99.90;;;;;;5174178;28;20448;-51
2021/12/04 08:43:05;;;;;;;14.10;9.73;;;2.80;99.90;;;;;;5180933;28;20713;-50
2021/12/04 08:45:37;;;;;;;17.80;11.00;;;2.80;99.90;;;;;;5176818;28;21309;-50
2021/12/04 08:48:12;;;;;;;13.77;8.27;;;2.70;99.90;;;;;;5170907;28;20466;-50
2021/12/04 08:50:43;;;;;;;14.20;8.63;;;2.80;99.90;;;;;;5170988;28;20477;-51
2021/12/04 08:53:13;;;;;;;14.47;8.03;;;2.70;99.90;;;;;;5173544;28;20467;-50
2021/12/04 08:55:45;;;;;;;15.53;8.83;;;2.80;99.90;;;;;;5168430;28;20243;-51
2021/12/04 08:58:16;;;;;;;15.90;12.23;;;2.90;99.90;;;;;;5178169;28;20181;-52
2021/12/04 09:00:53;;;;;;;8.47;7.73;;;2.90;99.90;;;;;;5174428;28;20434;-51
2021/12/04 09:03:37;;;;;;;12.30;7.90;;;2.90;99.90;;;;;;5190225;28;20211;-51
2021/12/04 09:06:08;;;;;;;12.77;7.70;;;3.00;99.90;;;;;;5175930;28;20429;-51
2021/12/04 09:08:39;;;;;;;11.67;8.53;;;2.90;99.90;;;;;;5174854;28;20546;-51
2021/12/04 09:11:19;;;;;;;12.67;9.80;;;2.90;99.90;;;;;;5171175;28;20231;-52
2021/12/04 09:13:51;;;;;;;17.47;9.47;;;3.00;99.90;;;;;;5175517;28;20802;-50
2021/12/04 09:16:23;;;;;;;19.67;9.00;;;3.00;99.90;;;;;;5175346;28;20923;-51
2021/12/04 09:18:55;;;;;;;8.83;7.47;;;3.10;99.90;;;;;;5173910;28;20438;-51
2021/12/04 09:21:28;;;;;;;29.53;10.63;;;3.00;99.90;;;;;;5169955;28;20470;-52
2021/12/04 09:24:09;;;;;;;14.13;9.53;;;3.00;99.90;;;;;;5176941;28;20485;-52
2021/12/04 09:27:13;;;;;;;11.43;9.10;;;2.90;99.90;;;;;;5176756;28;20450;-52
2021/12/04 09:30:07;;;;;;;20.27;10.70;;;3.00;99.90;;;;;;5176903;28;20442;-52
2021/12/04 10:00:44;;;;;;;26.17;14.90;;;3.10;99.90;;;;;;5171821;28;20497;-51
2021/12/04 10:03:44;;;;;;;30.83;14.37;;;3.10;99.90;;;;;;5180887;28;20455;-51
2021/12/04 10:21:00;;;;;;;23.27;13.23;;;2.80;99.90;;;;;;5183419;28;20443;-51
2021/12/04 10:32:24;;;;;;;28.60;14.10;;;3.20;99.90;;;;;;5173525;28;20469;-52
2021/12/04 10:35:09;;;;;;;16.00;11.50;;;3.30;99.90;;;;;;5179502;28;20539;-51
2021/12/04 10:37:54;;;;;;;21.50;10.70;;;3.10;99.90;;;;;;5180268;28;20505;-52
2021/12/04 10:40:40;;;;;;;29.60;13.57;;;3.00;99.90;;;;;;5176184;28;20957;-52
2021/12/04 10:43:16;;;;;;;16.37;12.13;;;2.80;99.90;;;;;;5179616;28;20470;-51
2021/12/04 10:45:52;;;;;;;17.87;12.00;;;2.90;99.90;;;;;;5176107;28;21607;-52
2021/12/04 10:48:27;;;;;;;15.83;10.67;;;2.90;99.90;;;;;;5180262;28;20514;-52
2021/12/04 10:51:17;;;;;;;11.73;10.20;;;2.80;99.90;;;;;;5179381;28;20474;-52
2021/12/04 10:53:50;;;;;;;17.50;12.07;;;2.70;99.90;;;;;;5183344;28;20918;-53
2021/12/04 10:59:37;;;;;;;18.07;11.47;;;2.60;99.90;;;;;;5179684;28;20474;-51
2021/12/04 11:02:18;;;;;;;20.87;12.27;;;2.60;99.90;;;;;;5183041;28;20524;-51
2021/12/04 11:05:36;;;;;;;19.70;12.20;;;2.70;99.90;;;;;;5182897;28;20475;-52
2021/12/04 11:25:54;;;;;;;14.83;11.10;;;3.30;99.90;;;;;;5180541;28;20466;-51
2021/12/04 11:39:36;;;;;;;18.87;11.77;;;3.40;99.90;;;;;;5179380;28;20438;-51
2021/12/04 11:42:35;;;;;;;14.20;10.73;;;3.40;99.90;;;;;;5178904;28;20455;-50
2021/12/04 11:45:20;;;;;;;16.50;10.80;;;3.40;99.90;;;;;;5178780;28;20585;-52
2021/12/04 11:48:03;;;;;;;16.30;10.93;;;3.30;99.90;;;;;;5179315;28;20915;-53
2021/12/04 11:50:40;;;;;;;18.50;11.00;;;3.20;99.90;;;;;;5194815;28;20519;-51
2021/12/04 11:53:17;;;;;;;15.20;11.10;;;3.10;99.90;;;;;;5182048;28;20449;-51
2021/12/04 11:55:51;;;;;;;14.67;11.10;;;3.10;99.90;;;;;;5180279;28;20463;-52
2021/12/04 11:58:23;;;;;;;12.80;10.60;;;3.10;99.90;;;;;;5184137;28;20430;-53
2021/12/04 12:01:19;;;;;;;14.50;10.50;;;3.00;99.90;;;;;;5179710;28;20441;-52
2021/12/04 12:03:54;;;;;;;16.70;11.43;;;3.00;99.90;;;;;;5179881;28;20459;-51
2021/12/04 12:06:32;;;;;;;16.33;11.57;;;2.90;99.90;;;;;;5176056;28;20414;-52
2021/12/04 12:09:07;;;;;;;16.90;11.33;;;2.90;99.90;;;;;;5161849;28;20439;-52
2021/12/04 12:11:53;;;;;;;16.33;10.97;;;3.00;99.90;;;;;;5174005;28;20470;-53
2021/12/04 12:14:39;;;;;;;14.50;11.30;;;3.00;99.90;;;;;;5176777;28;20462;-52
2021/12/04 12:17:11;;;;;;;17.00;12.37;;;3.10;99.90;;;;;;5174569;28;20669;-52
2021/12/04 12:19:51;;;;;;;18.33;12.17;;;3.30;99.90;;;;;;5174581;28;20439;-52
2021/12/04 12:22:35;;;;;;;18.53;11.40;;;3.20;99.90;;;;;;5169824;28;21720;-52
2021/12/04 12:25:18;;;;;;;14.30;11.33;;;3.20;99.90;;;;;;5176223;28;21007;-51
2021/12/04 12:33:40;;;;;;;14.90;11.80;;;3.10;99.90;;;;;;5184065;28;20431;-50
2021/12/04 12:36:14;;;;;;;16.20;12.70;;;3.00;99.90;;;;;;5188472;28;20580;-52
2021/12/04 12:38:56;;;;;;;18.53;12.90;;;3.00;99.90;;;;;;5175095;28;20546;-52
2021/12/04 12:41:40;;;;;;;22.90;15.77;;;3.00;99.90;;;;;;5173990;28;20466;-51
2021/12/04 12:44:24;;;;;;;19.20;13.10;;;2.90;99.90;;;;;;5178660;28;20459;-49
2021/12/04 12:47:04;;;;;;;22.87;14.27;;;2.80;99.90;;;;;;5177635;28;20477;-52
2021/12/04 12:49:41;;;;;;;18.57;12.03;;;2.80;99.90;;;;;;5171068;28;20427;-51
2021/12/04 12:52:25;;;;;;;15.93;12.10;;;2.70;99.90;;;;;;5174938;28;20853;-51
2021/12/04 12:55:03;;;;;;;17.20;13.30;;;2.70;99.90;;;;;;5174527;28;20462;-48
2021/12/04 12:57:41;;;;;;;19.60;12.17;;;2.80;99.90;;;;;;5176507;28;20446;-52
2021/12/04 13:11:53;;;;;;;18.50;14.37;;;3.00;99.90;;;;;;5176567;28;20434;-51
2021/12/04 13:14:28;;;;;;;18.23;12.90;;;2.90;99.90;;;;;;5178596;28;20447;-51
2021/12/04 13:17:12;;;;;;;16.90;11.37;;;2.80;99.90;;;;;;5178804;28;20446;-48
2021/12/04 13:19:48;;;;;;;15.63;11.67;;;2.80;99.90;;;;;;5181536;28;20454;-51
2021/12/04 13:22:22;;;;;;;17.00;11.00;;;2.70;99.90;;;;;;5180614;28;20462;-52
2021/12/04 13:24:58;;;;;;;10.87;9.47;;;2.80;99.90;;;;;;5174441;28;20470;-50
2021/12/04 13:30:05;;;;;;;15.77;10.83;;;2.60;99.90;;;;;;5172876;28;20431;-52
2021/12/04 13:32:40;;;;;;;12.40;10.50;;;2.70;99.90;;;;;;5171472;28;20434;-51
2021/12/04 13:35:16;;;;;;;11.43;10.10;;;2.60;99.90;;;;;;5172274;28;20974;-51
2021/12/04 13:37:58;;;;;;;15.57;9.67;;;2.70;99.90;;;;;;5171622;28;20453;-51
2021/12/04 13:40:29;;;;;;;12.10;8.80;;;2.70;99.90;;;;;;5168474;28;20505;-52
2021/12/04 13:42:59;;;;;;;16.70;10.90;;;2.80;99.90;;;;;;5170047;28;20542;-51
2021/12/04 13:45:30;;;;;;;13.23;8.50;;;2.70;99.90;;;;;;5173783;28;20204;-51
2021/12/04 13:48:00;;;;;;;18.30;8.57;;;2.80;99.90;;;;;;5173215;28;20185;-52
2021/12/04 13:53:13;;;;;;;10.97;8.50;;;2.90;99.90;;;;;;5169565;28;20212;-50
2021/12/04 13:55:48;;;;;;;12.87;9.73;;;3.00;99.90;;;;;;5170340;28;20458;-52
2021/12/04 13:58:19;;;;;;;13.90;9.47;;;3.00;99.90;;;;;;5177588;28;20438;-52
2021/12/04 14:00:50;;;;;;;20.93;11.47;;;2.80;99.90;;;;;;5173718;28;20476;-52
2021/12/04 14:03:23;;;;;;;11.03;9.43;;;2.80;99.90;;;;;;5175957;28;20471;-50
2021/12/04 14:05:54;;;;;;;9.67;8.50;;;2.80;99.90;;;;;;5179442;28;20239;-51
2021/12/04 14:08:25;;;;;;;19.37;8.67;;;2.80;99.90;;;;;;5177006;28;20974;-51
2021/12/04 14:10:55;;;;;;;19.10;11.90;;;2.80;99.90;;;;;;5178249;28;20217;-50
2021/12/04 14:13:26;;;;;;;21.50;12.93;;;2.80;99.90;;;;;;5178448;28;20189;-50
2021/12/04 14:15:58;;;;;;;16.17;12.10;;;2.70;99.90;;;;;;5179332;28;20671;-50
2021/12/04 14:18:30;;;;;;;14.63;11.93;;;2.70;99.90;;;;;;5175268;28;20192;-50
2021/12/04 14:21:01;;;;;;;19.33;13.07;;;2.70;99.90;;;;;;5163452;28;20443;-52
2021/12/04 14:23:33;;;;;;;18.60;13.13;;;2.70;99.90;;;;;;5175313;28;20474;-51
2021/12/04 14:26:04;;;;;;;21.07;14.07;;;2.60;99.90;;;;;;5182660;28;20549;-50
2021/12/04 14:28:39;;;;;;;17.97;13.87;;;2.70;99.90;;;;;;5177155;28;20538;-50
2021/12/04 14:31:12;;;;;;;20.53;14.67;;;2.60;99.90;;;;;;5175131;28;20207;-49
2021/12/04 14:33:43;;;;;;;18.53;12.57;;;2.60;99.90;;;;;;5175363;28;20559;-50
2021/12/04 14:36:20;;;;;;;22.17;13.60;;;2.60;99.90;;;;;;5207973;23;20517;-56
2021/12/04 14:38:50;;;;;;;20.03;13.80;;;2.60;99.90;;;;;;5173239;28;20445;-51
2021/12/04 14:41:23;;;;;;;20.10;14.43;;;2.50;99.90;;;;;;5175198;28;20431;-49
2021/12/04 14:43:53;;;;;;;31.07;16.93;;;2.50;99.90;;;;;;5177619;28;20250;-52
2021/12/04 14:46:26;;;;;;;26.93;15.67;;;2.50;99.90;;;;;;5155417;28;20793;-51
2021/12/04 14:49:01;;;;;;;24.53;15.83;;;2.50;99.90;;;;;;5156088;28;20185;-49
2021/12/04 14:51:32;;;;;;;24.77;16.10;;;2.40;99.90;;;;;;5153262;28;20935;-51
2021/12/04 14:54:03;;;;;;;27.07;15.87;;;2.40;99.90;;;;;;5152765;28;20448;-51
2021/12/04 14:56:34;;;;;;;26.17;17.20;;;2.40;99.90;;;;;;5157009;28;20208;-49
2021/12/04 14:59:15;;;;;;;28.20;18.73;;;2.30;99.90;;;;;;5153971;28;20479;-50
2021/12/04 15:01:46;;;;;;;22.53;17.00;;;2.30;99.90;;;;;;5153646;28;20460;-51
2021/12/04 15:04:17;;;;;;;28.70;18.10;;;2.30;99.90;;;;;;5158117;28;21208;-50
2021/12/04 15:06:48;;;;;;;26.93;17.67;;;2.30;99.90;;;;;;5155809;28;20520;-50
2021/12/04 15:09:18;;;;;;;26.37;16.67;;;2.30;99.90;;;;;;5158325;28;20444;-51
2021/12/04 15:11:50;;;;;;;25.87;17.90;;;2.20;99.90;;;;;;5155966;28;20687;-50
2021/12/04 15:14:31;;;;;;;27.67;18.87;;;2.20;99.90;;;;;;5174430;28;20231;-49
2021/12/04 15:17:11;;;;;;;30.23;17.73;;;2.20;99.90;;;;;;5158203;28;20432;-49
2021/12/04 15:19:44;;;;;;;30.13;19.00;;;2.20;99.90;;;;;;5154232;28;20435;-50
2021/12/04 15:22:46;;;;;;;24.60;17.70;;;2.10;99.90;;;;;;5159418;28;20547;-48
2021/12/04 15:25:19;;;;;;;27.07;16.67;;;2.20;99.90;;;;;;5157364;28;20798;-49
2021/12/04 15:27:50;;;;;;;27.10;17.70;;;2.20;99.90;;;;;;5158950;28;20432;-52
2021/12/04 15:30:21;;;;;;;27.27;17.47;;;2.20;99.90;;;;;;5154599;28;20466;-51
2021/12/04 15:32:53;;;;;;;30.10;17.90;;;2.10;99.90;;;;;;5176627;28;20479;-50
2021/12/04 15:35:35;;;;;;;28.73;17.73;;;2.10;99.90;;;;;;5154802;28;20616;-52
2021/12/04 15:38:21;;;;;;;30.20;17.00;;;2.00;99.90;;;;;;5153807;28;20427;-52
2021/12/04 15:46:30;;;;;;;38.43;17.33;;;2.10;99.90;;;;;;5153034;28;20530;-50
2021/12/04 15:54:25;;;;;;;33.80;17.87;;;2.20;99.90;;;;;;5158280;28;21287;-52
2021/12/04 15:56:57;;;;;;;25.50;17.47;;;2.10;99.90;;;;;;5152815;28;20963;-50
2021/12/04 15:59:30;;;;;;;21.37;14.77;;;2.10;99.90;;;;;;5156025;28;20523;-51
2021/12/04 16:02:13;;;;;;;21.50;14.90;;;2.10;99.90;;;;;;5148246;28;20547;-50
2021/12/04 16:04:44;;;;;;;16.30;12.83;;;2.20;99.90;;;;;;5155054;28;20455;-51
2021/12/04 16:07:24;;;;;;;21.20;14.23;;;2.10;99.90;;;;;;5156615;28;20440;-50